Time;durP1;ratioP1;P1;durP2;ratioP2;P2;SDS_P1;SDS_P2;PMS_P1;PMS_P2;Temp;Humidity;BMP_temperature;BMP_pressure;BME280_temperature;BME280_humidity;BME280_pressure;Samples;Min_cycle;Max_cycle;Signal;HPM_P1;HPM_P2
2023/06/30 00:00:21;;;;;;;8.15;7.45;;;;;;;;;;10341917;28;20064;-74
2023/06/30 00:05:25;;;;;;;7.50;6.82;;;;;;;;;;10351782;28;20041;-75
2023/06/30 00:10:25;;;;;;;7.70;7.10;;;;;;;;;;10348465;28;20112;-76
2023/06/30 00:15:25;;;;;;;7.90;7.20;;;;;;;;;;10348773;28;20462;-74
2023/06/30 00:20:26;;;;;;;7.83;6.90;;;;;;;;;;10333543;28;20343;-74
2023/06/30 00:25:26;;;;;;;7.63;6.77;;;;;;;;;;10339943;28;20292;-75
2023/06/30 00:30:26;;;;;;;8.23;7.53;;;;;;;;;;10341685;28;20279;-73
2023/06/30 00:35:28;;;;;;;7.60;6.90;;;;;;;;;;10348374;28;20056;-74
2023/06/30 00:40:29;;;;;;;8.45;7.70;;;;;;;;;;10348308;28;20384;-74
2023/06/30 00:45:29;;;;;;;7.60;6.90;;;;;;;;;;10346670;28;20042;-75
2023/06/30 00:50:32;;;;;;;;;;;;;;;;;;10328492;28;20453;-76
2023/06/30 00:55:33;;;;;;;8.63;7.82;;;;;;;;;;10329964;28;19972;-74
2023/06/30 01:00:34;;;;;;;8.70;7.90;;;;;;;;;;10341945;28;20530;-75
2023/06/30 01:05:54;;;;;;;8.50;7.77;;;;;;;;;;10345435;28;20038;-74
2023/06/30 01:10:56;;;;;;;10.23;8.00;;;;;;;;;;10353087;28;20399;-74
2023/06/30 01:15:57;;;;;;;8.65;7.90;;;;;;;;;;10336366;28;20096;-73
2023/06/30 01:20:59;;;;;;;9.15;8.35;;;;;;;;;;10355981;28;20045;-75
2023/06/30 01:26:02;;;;;;;8.05;7.25;;;;;;;;;;10346658;28;20046;-74
2023/06/30 01:31:08;;;;;;;9.47;8.57;;;;;;;;;;10350634;28;21401;-74
2023/06/30 01:36:09;;;;;;;9.65;8.70;;;;;;;;;;10347941;28;20054;-74
2023/06/30 01:41:11;;;;;;;8.38;7.68;;;;;;;;;;10338213;28;20042;-74
2023/06/30 01:46:13;;;;;;;8.73;7.60;;;;;;;;;;10340486;28;20916;-74
2023/06/30 01:51:13;;;;;;;9.43;8.63;;;;;;;;;;10349140;28;20052;-72
2023/06/30 01:56:14;;;;;;;9.10;8.13;;;;;;;;;;10348360;28;20030;-73
2023/06/30 02:01:14;;;;;;;9.52;8.63;;;;;;;;;;10329527;28;20513;-75
2023/06/30 02:06:14;;;;;;;9.02;8.20;;;;;;;;;;10350093;28;20037;-74
2023/06/30 02:11:15;;;;;;;9.57;8.68;;;;;;;;;;10350358;28;20045;-74
2023/06/30 02:16:15;;;;;;;9.23;8.37;;;;;;;;;;10348352;28;20073;-75
2023/06/30 02:21:16;;;;;;;9.17;8.37;;;;;;;;;;10349604;28;20292;-72
2023/06/30 02:26:16;;;;;;;9.23;8.33;;;;;;;;;;10330911;28;20746;-72
2023/06/30 02:31:16;;;;;;;8.45;7.70;;;;;;;;;;10329697;28;20052;-73
2023/06/30 02:36:17;;;;;;;8.77;7.97;;;;;;;;;;10346394;28;20125;-75
2023/06/30 02:41:17;;;;;;;9.83;8.83;;;;;;;;;;10332795;28;20407;-72
2023/06/30 02:46:17;;;;;;;8.93;8.07;;;;;;;;;;10334252;28;20045;-73
2023/06/30 02:51:18;;;;;;;8.45;7.85;;;;;;;;;;10333880;28;20096;-74
2023/06/30 02:56:18;;;;;;;9.20;8.40;;;;;;;;;;10348061;28;20057;-73
2023/06/30 03:01:21;;;;;;;9.05;8.32;;;;;;;;;;10335097;28;20293;-73
2023/06/30 03:06:23;;;;;;;10.00;8.88;;;;;;;;;;10312759;28;20050;-73
2023/06/30 03:11:24;;;;;;;10.55;9.32;;;;;;;;;;10334248;28;20050;-75
2023/06/30 03:16:24;;;;;;;9.73;8.93;;;;;;;;;;10347558;28;20406;-75
2023/06/30 03:21:25;;;;;;;9.73;8.82;;;;;;;;;;10347754;28;20062;-75
2023/06/30 03:26:28;;;;;;;10.07;9.18;;;;;;;;;;10330974;28;20057;-77
2023/06/30 03:31:28;;;;;;;11.43;10.40;;;;;;;;;;10328661;28;20038;-75
2023/06/30 03:36:30;;;;;;;11.43;10.38;;;;;;;;;;10330579;28;20086;-74
2023/06/30 03:41:30;;;;;;;12.40;11.10;;;;;;;;;;10329676;28;20482;-75
2023/06/30 03:46:30;;;;;;;11.75;10.63;;;;;;;;;;10352181;28;20649;-74
2023/06/30 03:51:31;;;;;;;11.67;10.67;;;;;;;;;;10353364;28;20050;-75
2023/06/30 03:56:31;;;;;;;10.82;9.80;;;;;;;;;;10350103;28;20307;-74
2023/06/30 04:01:33;;;;;;;11.35;10.32;;;;;;;;;;10339254;28;20053;-74
2023/06/30 04:06:36;;;;;;;10.17;9.23;;;;;;;;;;10342370;28;20053;-74
2023/06/30 04:11:36;;;;;;;11.73;10.63;;;;;;;;;;10344521;28;20061;-76
2023/06/30 04:16:36;;;;;;;12.03;10.93;;;;;;;;;;10343146;28;20058;-76
2023/06/30 04:21:37;;;;;;;10.50;9.60;;;;;;;;;;10345772;28;20038;-75
2023/06/30 04:26:37;;;;;;;12.43;11.20;;;;;;;;;;10331395;28;20287;-74
2023/06/30 04:31:38;;;;;;;11.30;10.20;;;;;;;;;;10343432;28;20526;-74
2023/06/30 04:36:38;;;;;;;12.57;11.47;;;;;;;;;;10342976;28;20596;-75
2023/06/30 04:41:39;;;;;;;13.60;12.20;;;;;;;;;;10340199;28;20309;-77
2023/06/30 04:46:39;;;;;;;11.90;10.80;;;;;;;;;;10344247;28;20292;-75
2023/06/30 04:51:39;;;;;;;11.73;10.63;;;;;;;;;;10355398;28;20288;-74
2023/06/30 04:56:40;;;;;;;12.33;11.13;;;;;;;;;;10353322;28;20308;-73
2023/06/30 05:01:40;;;;;;;13.37;12.17;;;;;;;;;;10343591;28;21138;-74
2023/06/30 05:06:40;;;;;;;13.83;12.57;;;;;;;;;;10348119;28;20048;-77
2023/06/30 05:11:41;;;;;;;16.17;14.10;;;;;;;;;;10342529;28;20042;-74
2023/06/30 05:16:41;;;;;;;15.33;13.63;;;;;;;;;;10347860;28;20148;-75
2023/06/30 05:21:41;;;;;;;13.40;12.00;;;;;;;;;;10362006;28;20056;-78
2023/06/30 05:26:42;;;;;;;12.60;11.30;;;;;;;;;;10346955;28;20514;-73
2023/06/30 05:31:43;;;;;;;14.68;13.32;;;;;;;;;;10342591;28;20640;-72
2023/06/30 05:36:46;;;;;;;15.55;13.95;;;;;;;;;;10343265;28;20112;-74
2023/06/30 05:41:46;;;;;;;15.55;13.80;;;;;;;;;;10340879;28;20570;-78
2023/06/30 05:46:46;;;;;;;15.70;14.15;;;;;;;;;;10324960;28;20038;-78
2023/06/30 05:51:48;;;;;;;15.07;13.67;;;;;;;;;;10346935;28;21302;-77
2023/06/30 05:56:48;;;;;;;13.85;12.43;;;;;;;;;;10350950;28;21143;-77
2023/06/30 06:01:48;;;;;;;14.53;13.23;;;;;;;;;;10350918;28;20046;-81
2023/06/30 06:06:49;;;;;;;14.77;13.47;;;;;;;;;;10355631;28;21316;-77
2023/06/30 06:11:49;;;;;;;13.73;12.32;;;;;;;;;;10336516;28;20318;-82
2023/06/30 06:16:50;;;;;;;13.18;11.82;;;;;;;;;;10351153;28;20576;-80
2023/06/30 06:21:50;;;;;;;12.97;11.77;;;;;;;;;;10353811;28;20069;-85
2023/06/30 06:26:51;;;;;;;13.50;12.20;;;;;;;;;;10356397;28;21251;-77
2023/06/30 06:31:51;;;;;;;10.23;9.33;;;;;;;;;;10338750;28;21163;-84
2023/06/30 06:36:52;;;;;;;10.13;9.20;;;;;;;;;;10356520;28;20129;-76
2023/06/30 06:41:52;;;;;;;11.07;10.03;;;;;;;;;;10354192;28;20073;-85
2023/06/30 06:47:13;;;;;;;9.25;8.35;;;;;;;;;;10363733;28;20317;-74
2023/06/30 06:52:13;;;;;;;10.63;9.55;;;;;;;;;;10341818;28;20049;-77
2023/06/30 06:57:14;;;;;;;10.97;9.83;;;;;;;;;;10347319;28;20120;-74
2023/06/30 07:02:14;;;;;;;10.70;9.43;;;;;;;;;;10355472;28;20042;-75
2023/06/30 07:07:14;;;;;;;10.87;9.77;;;;;;;;;;10371371;28;20042;-76
2023/06/30 07:12:15;;;;;;;10.40;9.37;;;;;;;;;;10365725;28;20119;-77
2023/06/30 07:17:15;;;;;;;10.23;9.33;;;;;;;;;;10339987;28;20061;-78
2023/06/30 07:22:16;;;;;;;10.63;9.53;;;;;;;;;;10350062;28;20399;-79
2023/06/30 07:27:16;;;;;;;11.98;10.88;;;;;;;;;;10335702;28;20042;-75
2023/06/30 07:32:17;;;;;;;11.97;10.83;;;;;;;;;;10349199;28;20100;-79
2023/06/30 07:37:17;;;;;;;12.10;11.00;;;;;;;;;;10352407;28;20297;-75
2023/06/30 07:42:17;;;;;;;13.67;12.33;;;;;;;;;;10351268;28;20046;-74
2023/06/30 07:47:21;;;;;;;12.60;11.20;;;;;;;;;;10354814;28;20311;-77
2023/06/30 07:52:21;;;;;;;12.77;11.55;;;;;;;;;;10355367;28;20113;-74
2023/06/30 07:57:24;;;;;;;11.53;10.33;;;;;;;;;;10340287;28;20126;-74
2023/06/30 08:02:24;;;;;;;8.73;7.93;;;;;;;;;;10341700;28;20049;-86
2023/06/30 08:07:25;;;;;;;8.07;7.10;;;;;;;;;;10344779;28;20080;-80
2023/06/30 08:12:25;;;;;;;9.80;8.77;;;;;;;;;;10353277;28;20057;-76
2023/06/30 08:17:25;;;;;;;7.10;6.40;;;;;;;;;;10355947;28;20160;-85
2023/06/30 08:22:27;;;;;;;6.63;6.00;;;;;;;;;;10353432;28;20564;-80
2023/06/30 08:27:28;;;;;;;8.13;6.45;;;;;;;;;;10359653;28;20041;-78
2023/06/30 08:32:29;;;;;;;8.27;6.57;;;;;;;;;;10370296;28;20042;-80
2023/06/30 08:37:29;;;;;;;7.23;6.33;;;;;;;;;;10367055;28;20569;-76
2023/06/30 08:42:30;;;;;;;7.03;6.37;;;;;;;;;;10358515;28;20304;-81
2023/06/30 08:47:32;;;;;;;8.80;6.77;;;;;;;;;;10345042;28;20776;-77
2023/06/30 08:52:33;;;;;;;7.93;7.13;;;;;;;;;;10355872;28;20124;-79
2023/06/30 08:57:34;;;;;;;11.47;7.73;;;;;;;;;;10336445;28;20081;-76
2023/06/30 09:02:36;;;;;;;8.30;6.38;;;;;;;;;;10348187;28;20470;-81
2023/06/30 09:07:45;;;;;;;9.32;7.15;;;;;;;;;;10348411;28;20030;-79
2023/06/30 09:12:46;;;;;;;8.48;6.95;;;;;;;;;;10334423;28;20116;-78
2023/06/30 09:17:47;;;;;;;8.07;6.68;;;;;;;;;;10347061;28;20105;-76
2023/06/30 09:22:48;;;;;;;;;;;;;;;;;;10345613;28;20088;-78
2023/06/30 09:27:49;;;;;;;8.43;7.53;;;;;;;;;;10350799;28;20047;-77
2023/06/30 09:32:53;;;;;;;9.23;7.70;;;;;;;;;;10354447;28;20061;-75
2023/06/30 09:37:53;;;;;;;7.93;6.70;;;;;;;;;;10353654;28;20045;-74
2023/06/30 09:42:53;;;;;;;10.87;7.67;;;;;;;;;;10357073;28;20042;-74
2023/06/30 09:47:54;;;;;;;8.20;6.37;;;;;;;;;;10353719;28;20046;-74
2023/06/30 09:52:54;;;;;;;7.47;6.77;;;;;;;;;;10340126;28;20052;-75
2023/06/30 09:57:55;;;;;;;10.00;7.87;;;;;;;;;;10350461;28;20081;-75
2023/06/30 10:03:02;;;;;;;8.40;7.37;;;;;;;;;;10352032;28;20041;-76
2023/06/30 10:08:03;;;;;;;7.88;6.95;;;;;;;;;;10355483;28;21031;-78
2023/06/30 10:13:04;;;;;;;8.20;7.10;;;;;;;;;;10352000;28;20038;-74
2023/06/30 10:18:04;;;;;;;7.23;6.47;;;;;;;;;;10349498;28;20053;-75
2023/06/30 10:23:05;;;;;;;8.47;6.97;;;;;;;;;;10346427;28;20064;-76
2023/06/30 10:28:08;;;;;;;7.78;6.57;;;;;;;;;;10345273;28;20618;-75
2023/06/30 10:33:11;;;;;;;8.17;6.80;;;;;;;;;;10351077;28;20115;-73
2023/06/30 10:38:13;;;;;;;7.35;6.32;;;;;;;;;;10348364;28;20049;-78
2023/06/30 10:43:14;;;;;;;8.13;6.60;;;;;;;;;;10332022;28;20776;-76
2023/06/30 10:48:14;;;;;;;7.47;6.53;;;;;;;;;;10346673;28;20057;-76
2023/06/30 10:53:17;;;;;;;7.70;6.90;;;;;;;;;;10341696;28;20161;-77
2023/06/30 10:58:22;;;;;;;9.63;6.80;;;;;;;;;;10346092;28;20062;-78
2023/06/30 11:03:23;;;;;;;7.95;6.68;;;;;;;;;;10325958;28;20852;-77
2023/06/30 11:08:23;;;;;;;9.75;7.38;;;;;;;;;;10358375;28;20061;-76
2023/06/30 11:13:36;;;;;;;9.15;7.15;;;;;;;;;;10352726;28;20081;-77
2023/06/30 11:18:38;;;;;;;9.68;7.05;;;;;;;;;;10350025;28;20433;-77
2023/06/30 11:23:39;;;;;;;8.68;6.50;;;;;;;;;;10345355;28;20053;-75
2023/06/30 11:28:40;;;;;;;14.85;10.23;;;;;;;;;;10344206;28;20779;-77
2023/06/30 11:33:41;;;;;;;19.80;11.73;;;;;;;;;;10344854;28;20057;-77
2023/06/30 11:38:45;;;;;;;17.05;12.52;;;;;;;;;;10344251;28;20327;-76
2023/06/30 11:43:49;;;;;;;17.55;13.82;;;;;;;;;;10341250;28;20842;-75
2023/06/30 11:48:49;;;;;;;21.52;15.40;;;;;;;;;;10342553;28;20151;-75
2023/06/30 11:53:49;;;;;;;19.42;15.30;;;;;;;;;;10337631;28;20144;-74
2023/06/30 11:58:50;;;;;;;22.07;17.53;;;;;;;;;;10343256;28;20096;-75
2023/06/30 12:03:57;;;;;;;17.02;14.85;;;;;;;;;;10343219;28;20049;-75
2023/06/30 12:09:01;;;;;;;20.17;15.32;;;;;;;;;;10326333;28;20046;-76
2023/06/30 12:14:13;;;;;;;20.90;14.77;;;;;;;;;;10345445;28;21184;-76
2023/06/30 12:19:13;;;;;;;20.63;15.70;;;;;;;;;;10340375;28;20418;-77
2023/06/30 12:24:16;;;;;;;16.77;14.35;;;;;;;;;;10328380;28;20077;-79
2023/06/30 12:29:17;;;;;;;18.27;13.73;;;;;;;;;;10329433;28;20049;-74
2023/06/30 12:34:29;;;;;;;15.23;12.80;;;;;;;;;;10341234;28;20097;-77
2023/06/30 12:39:30;;;;;;;17.85;13.30;;;;;;;;;;10341786;28;20050;-76
2023/06/30 12:44:30;;;;;;;17.25;14.60;;;;;;;;;;10343239;28;20046;-79
2023/06/30 12:49:31;;;;;;;16.43;13.10;;;;;;;;;;10343003;28;20041;-75
2023/06/30 12:54:31;;;;;;;14.30;12.18;;;;;;;;;;10342417;28;20307;-78
2023/06/30 12:59:32;;;;;;;17.37;12.70;;;;;;;;;;10342372;28;20058;-78
2023/06/30 13:04:32;;;;;;;16.50;13.23;;;;;;;;;;10350101;28;20414;-76
2023/06/30 13:09:32;;;;;;;20.77;15.97;;;;;;;;;;10356914;28;20366;-74
2023/06/30 13:14:33;;;;;;;22.17;16.90;;;;;;;;;;10343006;28;20041;-75
2023/06/30 13:19:33;;;;;;;21.90;17.17;;;;;;;;;;10352559;28;20133;-77
2023/06/30 13:24:34;;;;;;;25.50;19.37;;;;;;;;;;10350003;28;20055;-74
2023/06/30 13:29:34;;;;;;;23.60;18.38;;;;;;;;;;10346100;28;20048;-75
2023/06/30 13:34:35;;;;;;;24.45;19.38;;;;;;;;;;10332753;28;20070;-76
2023/06/30 13:39:35;;;;;;;25.70;20.63;;;;;;;;;;10347077;28;20683;-76
2023/06/30 13:44:36;;;;;;;27.17;21.90;;;;;;;;;;10337240;28;20605;-75
2023/06/30 13:49:36;;;;;;;25.67;19.38;;;;;;;;;;10341795;28;20058;-76
2023/06/30 13:54:38;;;;;;;25.25;19.48;;;;;;;;;;10333191;28;20490;-74
2023/06/30 13:59:38;;;;;;;24.90;18.48;;;;;;;;;;10346867;28;20459;-75
2023/06/30 14:04:38;;;;;;;22.33;17.83;;;;;;;;;;10353583;28;20046;-75
2023/06/30 14:09:39;;;;;;;22.07;19.53;;;;;;;;;;10350259;28;20404;-76
2023/06/30 14:14:39;;;;;;;26.03;19.77;;;;;;;;;;10348254;28;20291;-74
2023/06/30 14:19:39;;;;;;;22.90;19.80;;;;;;;;;;10344455;28;20065;-76
2023/06/30 14:24:56;;;;;;;25.90;19.33;;;;;;;;;;10587580;27;20981;-76
2023/06/30 14:29:56;;;;;;;22.45;18.95;;;;;;;;;;10588662;27;20035;-76
2023/06/30 14:34:58;;;;;;;19.55;17.60;;;;;;;;;;10583969;27;20039;-74
2023/06/30 14:39:58;;;;;;;19.40;17.40;;;;;;;;;;10584252;27;20032;-76
2023/06/30 14:44:59;;;;;;;19.07;16.87;;;;;;;;;;10578627;27;20044;-77
2023/06/30 14:49:59;;;;;;;17.70;15.90;;;;;;;;;;10578621;27;20042;-75
2023/06/30 14:54:59;;;;;;;17.67;15.73;;;;;;;;;;10572177;27;20543;-76
2023/06/30 15:00:00;;;;;;;21.07;17.10;;;;;;;;;;10578839;27;20028;-76
2023/06/30 15:05:00;;;;;;;22.63;17.53;;;;;;;;;;10583738;27;20851;-77
2023/06/30 15:10:01;;;;;;;22.30;17.00;;;;;;;;;;10619918;27;20954;-77
2023/06/30 15:15:03;;;;;;;26.48;20.17;;;;;;;;;;10616515;27;20036;-75
2023/06/30 15:20:04;;;;;;;26.15;19.83;;;;;;;;;;10618111;27;20027;-80
2023/06/30 15:25:05;;;;;;;27.55;20.90;;;;;;;;;;10600315;27;20528;-75
2023/06/30 15:30:06;;;;;;;29.23;21.60;;;;;;;;;;10616689;27;20036;-75
2023/06/30 15:35:06;;;;;;;36.75;26.98;;;;;;;;;;10597505;27;20096;-76
2023/06/30 15:40:07;;;;;;;34.22;24.20;;;;;;;;;;10587164;27;20091;-75
2023/06/30 15:45:07;;;;;;;32.70;21.20;;;;;;;;;;10593285;27;20050;-73
2023/06/30 15:50:08;;;;;;;28.05;20.02;;;;;;;;;;10555158;27;20381;-73
2023/06/30 15:55:10;;;;;;;28.83;21.63;;;;;;;;;;10580024;27;20036;-73
2023/06/30 16:00:11;;;;;;;28.58;20.38;;;;;;;;;;10592196;27;21005;-75
2023/06/30 16:05:17;;;;;;;30.77;19.63;;;;;;;;;;10579776;27;20077;-73
2023/06/30 16:10:17;;;;;;;26.70;19.23;;;;;;;;;;10542916;27;20403;-73
2023/06/30 16:15:18;;;;;;;28.85;21.55;;;;;;;;;;10581897;27;20022;-80
2023/06/30 16:20:18;;;;;;;28.88;20.27;;;;;;;;;;10622494;27;20019;-83
2023/06/30 16:25:19;;;;;;;27.73;20.40;;;;;;;;;;10629899;27;20061;-81
2023/06/30 16:30:26;;;;;;;25.33;18.25;;;;;;;;;;10592269;27;20813;-84
2023/06/30 16:35:27;;;;;;;27.20;18.30;;;;;;;;;;10563128;27;20032;-77
2023/06/30 16:40:27;;;;;;;22.33;17.00;;;;;;;;;;10562585;27;20042;-72
2023/06/30 16:45:28;;;;;;;23.97;17.30;;;;;;;;;;10576263;27;20031;-73
2023/06/30 16:50:29;;;;;;;24.90;17.73;;;;;;;;;;10569121;27;20278;-73
2023/06/30 16:55:30;;;;;;;25.08;16.08;;;;;;;;;;10558404;27;20052;-72
2023/06/30 17:00:30;;;;;;;22.67;16.60;;;;;;;;;;10557322;27;20049;-74
2023/06/30 17:05:30;;;;;;;25.25;17.20;;;;;;;;;;10581962;27;21337;-72
2023/06/30 17:10:31;;;;;;;22.23;15.40;;;;;;;;;;10585976;27;20096;-75
2023/06/30 17:15:31;;;;;;;23.00;16.50;;;;;;;;;;10554737;27;20054;-72
2023/06/30 17:20:32;;;;;;;21.08;15.23;;;;;;;;;;10574631;27;20034;-74
2023/06/30 17:25:32;;;;;;;20.63;14.03;;;;;;;;;;10577117;27;20047;-77
2023/06/30 17:30:32;;;;;;;18.33;13.60;;;;;;;;;;10579811;27;20061;-73
2023/06/30 17:35:33;;;;;;;19.37;14.33;;;;;;;;;;10567398;27;20712;-73
2023/06/30 17:40:33;;;;;;;18.37;13.37;;;;;;;;;;10581490;27;20502;-73
2023/06/30 17:45:34;;;;;;;18.50;12.60;;;;;;;;;;10567403;27;20040;-75
2023/06/30 17:50:34;;;;;;;17.50;12.43;;;;;;;;;;10559670;27;20027;-78
2023/06/30 17:55:35;;;;;;;16.27;11.95;;;;;;;;;;10555223;27;20036;-79
2023/06/30 18:00:35;;;;;;;16.48;12.15;;;;;;;;;;10577055;27;20035;-77
2023/06/30 18:05:35;;;;;;;18.13;12.43;;;;;;;;;;10568425;27;20208;-77
2023/06/30 18:10:36;;;;;;;16.67;12.17;;;;;;;;;;10567184;27;20305;-75
2023/06/30 18:15:36;;;;;;;18.60;12.52;;;;;;;;;;10570981;27;20043;-79
2023/06/30 18:20:37;;;;;;;16.73;11.77;;;;;;;;;;10584279;27;20031;-77
2023/06/30 18:25:39;;;;;;;17.15;11.68;;;;;;;;;;10587958;27;21248;-75
2023/06/30 18:30:39;;;;;;;18.30;12.03;;;;;;;;;;10574236;27;20039;-79
2023/06/30 18:35:39;;;;;;;18.23;12.83;;;;;;;;;;10584844;27;20059;-77
2023/06/30 18:40:40;;;;;;;19.33;12.88;;;;;;;;;;10585373;27;20035;-76
2023/06/30 18:45:40;;;;;;;16.57;11.93;;;;;;;;;;10576365;27;20053;-77
2023/06/30 18:50:40;;;;;;;14.47;11.00;;;;;;;;;;10568661;27;20076;-75
2023/06/30 18:55:41;;;;;;;16.90;11.87;;;;;;;;;;10581667;27;20039;-76
2023/06/30 19:00:41;;;;;;;16.87;11.47;;;;;;;;;;10564026;27;20046;-75
2023/06/30 19:05:42;;;;;;;16.25;11.40;;;;;;;;;;10574393;27;20836;-78
2023/06/30 19:10:44;;;;;;;15.35;10.85;;;;;;;;;;10578013;27;20762;-79
2023/06/30 19:15:45;;;;;;;14.20;10.82;;;;;;;;;;10567595;27;20044;-77
2023/06/30 19:20:46;;;;;;;14.85;9.73;;;;;;;;;;10594368;27;20039;-77
2023/06/30 19:25:47;;;;;;;13.03;8.70;;;;;;;;;;10619698;27;20059;-80
2023/06/30 19:30:47;;;;;;;11.30;7.82;;;;;;;;;;10613976;27;20115;-78
2023/06/30 19:35:51;;;;;;;11.15;7.65;;;;;;;;;;10595266;27;20151;-78
2023/06/30 19:40:52;;;;;;;11.95;7.85;;;;;;;;;;10575132;27;20039;-78
2023/06/30 19:45:53;;;;;;;10.43;7.00;;;;;;;;;;10566736;27;20510;-76
2023/06/30 19:50:53;;;;;;;13.32;7.47;;;;;;;;;;10568615;27;20046;-76
2023/06/30 19:55:53;;;;;;;10.60;6.75;;;;;;;;;;10582876;27;20510;-77
2023/06/30 20:00:54;;;;;;;8.83;6.50;;;;;;;;;;10583606;27;20917;-76
2023/06/30 20:05:54;;;;;;;9.23;6.53;;;;;;;;;;10595394;27;20039;-76
2023/06/30 20:10:55;;;;;;;9.88;6.57;;;;;;;;;;10574618;27;20035;-78
2023/06/30 20:15:55;;;;;;;8.70;6.20;;;;;;;;;;10579235;27;20381;-77
2023/06/30 20:20:55;;;;;;;11.37;6.50;;;;;;;;;;10571957;27;20793;-80
2023/06/30 20:25:56;;;;;;;7.93;5.80;;;;;;;;;;10546414;28;20024;-78
2023/06/30 20:30:57;;;;;;;8.18;5.43;;;;;;;;;;10543105;28;20036;-77
2023/06/30 20:35:57;;;;;;;8.65;6.15;;;;;;;;;;10546653;28;20194;-77
2023/06/30 20:40:58;;;;;;;8.30;5.53;;;;;;;;;;10547750;28;20042;-77
2023/06/30 20:45:58;;;;;;;7.75;5.55;;;;;;;;;;10545206;28;20208;-78
2023/06/30 20:50:58;;;;;;;8.33;5.43;;;;;;;;;;10544986;28;20124;-76
2023/06/30 20:55:59;;;;;;;7.43;5.30;;;;;;;;;;10545063;28;20277;-77
2023/06/30 21:00:59;;;;;;;10.63;7.30;;;;;;;;;;10544082;28;20027;-79
2023/06/30 21:05:59;;;;;;;9.47;6.37;;;;;;;;;;10544637;28;20306;-77
2023/06/30 21:11:00;;;;;;;7.97;5.57;;;;;;;;;;10545189;28;20031;-78
2023/06/30 21:16:00;;;;;;;9.60;5.60;;;;;;;;;;10552482;28;20023;-79
2023/06/30 21:21:00;;;;;;;6.13;4.80;;;;;;;;;;10547972;27;20404;-75
2023/06/30 21:26:01;;;;;;;7.80;4.93;;;;;;;;;;10545343;28;20042;-76
2023/06/30 21:31:01;;;;;;;5.83;4.50;;;;;;;;;;10549351;28;20050;-76
2023/06/30 21:36:02;;;;;;;6.85;5.00;;;;;;;;;;10541618;28;20059;-74
2023/06/30 21:41:02;;;;;;;5.35;4.05;;;;;;;;;;10550347;28;20039;-75
2023/06/30 21:46:15;;;;;;;6.97;5.07;;;;;;;;;;10544171;28;20045;-76
2023/06/30 21:51:16;;;;;;;6.47;4.45;;;;;;;;;;10527669;28;20492;-76
2023/06/30 21:56:16;;;;;;;7.10;4.45;;;;;;;;;;10545666;28;20076;-77
2023/06/30 22:01:17;;;;;;;7.65;4.80;;;;;;;;;;10519143;28;20043;-76
2023/06/30 22:06:17;;;;;;;7.32;4.45;;;;;;;;;;10545695;28;20176;-76
2023/06/30 22:11:17;;;;;;;6.80;4.43;;;;;;;;;;10503749;28;20103;-77
2023/06/30 22:16:18;;;;;;;6.77;4.40;;;;;;;;;;10525527;28;20043;-75
2023/06/30 22:21:18;;;;;;;7.37;5.00;;;;;;;;;;10542004;28;20297;-77
2023/06/30 22:26:18;;;;;;;5.30;3.93;;;;;;;;;;10620435;27;20280;-76
2023/06/30 22:31:19;;;;;;;5.03;4.18;;;;;;;;;;10617009;27;20039;-75
2023/06/30 22:36:19;;;;;;;6.18;4.70;;;;;;;;;;10563922;27;20043;-77
2023/06/30 22:41:20;;;;;;;5.97;4.20;;;;;;;;;;10550550;27;20043;-76
2023/06/30 22:46:20;;;;;;;4.90;3.80;;;;;;;;;;10591042;27;20312;-76
2023/06/30 22:51:22;;;;;;;6.00;4.63;;;;;;;;;;10590169;27;21588;-75
2023/06/30 22:56:22;;;;;;;6.03;4.30;;;;;;;;;;10601152;27;20288;-77
2023/06/30 23:01:23;;;;;;;5.83;4.23;;;;;;;;;;10580104;27;20055;-76
2023/06/30 23:06:23;;;;;;;6.50;4.53;;;;;;;;;;10589171;27;20039;-75
2023/06/30 23:11:23;;;;;;;5.70;4.37;;;;;;;;;;10570275;27;20035;-76
2023/06/30 23:16:24;;;;;;;6.30;4.80;;;;;;;;;;10569318;27;20044;-76
2023/06/30 23:21:27;;;;;;;5.83;4.57;;;;;;;;;;10588327;27;21089;-76
2023/06/30 23:26:28;;;;;;;5.75;4.75;;;;;;;;;;10568961;27;20138;-75
2023/06/30 23:31:32;;;;;;;5.37;4.40;;;;;;;;;;10593261;27;20332;-76
2023/06/30 23:36:33;;;;;;;5.38;4.55;;;;;;;;;;10596379;27;20692;-76
2023/06/30 23:41:34;;;;;;;7.82;5.30;;;;;;;;;;10588969;27;20035;-75
2023/06/30 23:46:35;;;;;;;7.60;5.23;;;;;;;;;;10588821;27;20115;-77
2023/06/30 23:51:35;;;;;;;6.25;5.00;;;;;;;;;;10588384;27;20333;-77
2023/06/30 23:56:36;;;;;;;5.50;4.93;;;;;;;;;;10598760;27;20066;-78
